sensor_id;sensor_type;location;lat;lon;timestamp;P1;durP1;ratioP1;P2;durP2;ratioP2
62709;SDS011;48770;51.624;5.886;2023-07-08T00:00:49;3.45;;;1.60;;
62709;SDS011;48770;51.624;5.886;2023-07-08T00:03:15;3.28;;;1.70;;
62709;SDS011;48770;51.624;5.886;2023-07-08T00:05:43;2.70;;;1.40;;
62709;SDS011;48770;51.624;5.886;2023-07-08T00:08:13;2.17;;;1.23;;
62709;SDS011;48770;51.624;5.886;2023-07-08T00:10:39;4.88;;;1.88;;
62709;SDS011;48770;51.624;5.886;2023-07-08T00:13:04;3.83;;;1.70;;
62709;SDS011;48770;51.624;5.886;2023-07-08T00:15:30;2.17;;;1.60;;
62709;SDS011;48770;51.624;5.886;2023-07-08T00:17:57;3.25;;;1.75;;
62709;SDS011;48770;51.624;5.886;2023-07-08T00:20:28;2.45;;;1.42;;
62709;SDS011;48770;51.624;5.886;2023-07-08T00:22:57;2.13;;;1.75;;
62709;SDS011;48770;51.624;5.886;2023-07-08T00:25:25;3.33;;;1.58;;
62709;SDS011;48770;51.624;5.886;2023-07-08T00:27:51;1.70;;;1.27;;
62709;SDS011;48770;51.624;5.886;2023-07-08T00:30:24;2.10;;;1.25;;
62709;SDS011;48770;51.624;5.886;2023-07-08T00:32:52;1.75;;;1.60;;
62709;SDS011;48770;51.624;5.886;2023-07-08T00:35:37;5.75;;;1.38;;
62709;SDS011;48770;51.624;5.886;2023-07-08T00:38:12;2.33;;;1.42;;
62709;SDS011;48770;51.624;5.886;2023-07-08T00:40:48;3.17;;;1.48;;
62709;SDS011;48770;51.624;5.886;2023-07-08T00:43:15;4.78;;;1.60;;
62709;SDS011;48770;51.624;5.886;2023-07-08T00:45:46;2.00;;;1.60;;
62709;SDS011;48770;51.624;5.886;2023-07-08T00:50:58;2.92;;;1.42;;
62709;SDS011;48770;51.624;5.886;2023-07-08T00:53:33;2.20;;;1.60;;
62709;SDS011;48770;51.624;5.886;2023-07-08T00:56:01;1.80;;;1.45;;
62709;SDS011;48770;51.624;5.886;2023-07-08T00:58:37;1.85;;;1.73;;
62709;SDS011;48770;51.624;5.886;2023-07-08T01:01:08;3.00;;;1.50;;
62709;SDS011;48770;51.624;5.886;2023-07-08T01:03:43;3.53;;;1.42;;
62709;SDS011;48770;51.624;5.886;2023-07-08T01:06:15;3.70;;;1.23;;
62709;SDS011;48770;51.624;5.886;2023-07-08T01:08:42;3.08;;;1.30;;
62709;SDS011;48770;51.624;5.886;2023-07-08T01:11:07;4.20;;;1.52;;
62709;SDS011;48770;51.624;5.886;2023-07-08T01:13:37;3.53;;;1.93;;
62709;SDS011;48770;51.624;5.886;2023-07-08T01:16:07;1.88;;;1.45;;
62709;SDS011;48770;51.624;5.886;2023-07-08T01:18:33;4.68;;;1.95;;
62709;SDS011;48770;51.624;5.886;2023-07-08T01:21:01;2.05;;;1.13;;
62709;SDS011;48770;51.624;5.886;2023-07-08T01:23:31;4.25;;;1.70;;
62709;SDS011;48770;51.624;5.886;2023-07-08T01:25:57;3.78;;;1.58;;
62709;SDS011;48770;51.624;5.886;2023-07-08T01:28:22;3.13;;;1.50;;
62709;SDS011;48770;51.624;5.886;2023-07-08T01:30:47;3.47;;;1.55;;
62709;SDS011;48770;51.624;5.886;2023-07-08T01:33:18;2.75;;;1.88;;
62709;SDS011;48770;51.624;5.886;2023-07-08T01:35:46;2.22;;;1.55;;
62709;SDS011;48770;51.624;5.886;2023-07-08T01:38:14;2.75;;;1.67;;
62709;SDS011;48770;51.624;5.886;2023-07-08T01:40:53;1.73;;;1.60;;
62709;SDS011;48770;51.624;5.886;2023-07-08T01:43:21;2.53;;;1.50;;
62709;SDS011;48770;51.624;5.886;2023-07-08T01:45:47;2.75;;;1.60;;
62709;SDS011;48770;51.624;5.886;2023-07-08T01:48:15;3.42;;;1.50;;
62709;SDS011;48770;51.624;5.886;2023-07-08T01:50:48;2.65;;;1.70;;
62709;SDS011;48770;51.624;5.886;2023-07-08T01:53:21;3.58;;;1.30;;
62709;SDS011;48770;51.624;5.886;2023-07-08T01:55:53;2.10;;;1.50;;
62709;SDS011;48770;51.624;5.886;2023-07-08T01:58:18;1.40;;;1.23;;
62709;SDS011;48770;51.624;5.886;2023-07-08T02:00:43;2.80;;;1.63;;
62709;SDS011;48770;51.624;5.886;2023-07-08T02:03:09;2.03;;;1.50;;
62709;SDS011;48770;51.624;5.886;2023-07-08T02:05:35;3.15;;;1.80;;
62709;SDS011;48770;51.624;5.886;2023-07-08T02:08:00;2.47;;;1.20;;
62709;SDS011;48770;51.624;5.886;2023-07-08T02:10:25;4.50;;;1.30;;
62709;SDS011;48770;51.624;5.886;2023-07-08T02:12:51;2.45;;;1.38;;
62709;SDS011;48770;51.624;5.886;2023-07-08T02:15:16;2.30;;;1.23;;
62709;SDS011;48770;51.624;5.886;2023-07-08T02:17:41;2.10;;;1.50;;
62709;SDS011;48770;51.624;5.886;2023-07-08T02:20:07;1.90;;;1.40;;
62709;SDS011;48770;51.624;5.886;2023-07-08T02:22:33;2.88;;;1.50;;
62709;SDS011;48770;51.624;5.886;2023-07-08T02:24:59;2.95;;;1.70;;
62709;SDS011;48770;51.624;5.886;2023-07-08T02:27:24;1.63;;;1.03;;
62709;SDS011;48770;51.624;5.886;2023-07-08T02:29:49;4.73;;;1.37;;
62709;SDS011;48770;51.624;5.886;2023-07-08T02:32:14;1.30;;;1.20;;
62709;SDS011;48770;51.624;5.886;2023-07-08T02:34:40;2.27;;;1.50;;
62709;SDS011;48770;51.624;5.886;2023-07-08T02:37:06;2.13;;;1.40;;
62709;SDS011;48770;51.624;5.886;2023-07-08T02:39:32;1.52;;;1.42;;
62709;SDS011;48770;51.624;5.886;2023-07-08T02:41:57;2.10;;;1.20;;
62709;SDS011;48770;51.624;5.886;2023-07-08T02:44:22;1.20;;;1.10;;
62709;SDS011;48770;51.624;5.886;2023-07-08T02:46:48;1.40;;;1.30;;
62709;SDS011;48770;51.624;5.886;2023-07-08T02:49:13;1.60;;;1.17;;
62709;SDS011;48770;51.624;5.886;2023-07-08T02:51:38;6.13;;;1.60;;
62709;SDS011;48770;51.624;5.886;2023-07-08T02:54:03;2.15;;;1.70;;
62709;SDS011;48770;51.624;5.886;2023-07-08T02:56:29;2.90;;;1.40;;
62709;SDS011;48770;51.624;5.886;2023-07-08T02:58:54;1.67;;;1.20;;
62709;SDS011;48770;51.624;5.886;2023-07-08T03:01:19;1.47;;;1.23;;
62709;SDS011;48770;51.624;5.886;2023-07-08T03:03:45;3.37;;;1.70;;
62709;SDS011;48770;51.624;5.886;2023-07-08T03:06:11;2.90;;;1.45;;
62709;SDS011;48770;51.624;5.886;2023-07-08T03:08:36;3.05;;;1.30;;
62709;SDS011;48770;51.624;5.886;2023-07-08T03:11:02;2.08;;;1.77;;
62709;SDS011;48770;51.624;5.886;2023-07-08T03:13:30;1.63;;;1.20;;
62709;SDS011;48770;51.624;5.886;2023-07-08T03:15:57;2.13;;;1.15;;
62709;SDS011;48770;51.624;5.886;2023-07-08T03:18:24;2.00;;;1.63;;
62709;SDS011;48770;51.624;5.886;2023-07-08T03:20:51;1.80;;;1.20;;
62709;SDS011;48770;51.624;5.886;2023-07-08T03:23:18;2.78;;;1.40;;
62709;SDS011;48770;51.624;5.886;2023-07-08T03:25:43;1.90;;;1.38;;
62709;SDS011;48770;51.624;5.886;2023-07-08T03:28:09;2.37;;;1.43;;
62709;SDS011;48770;51.624;5.886;2023-07-08T03:30:38;2.78;;;1.73;;
62709;SDS011;48770;51.624;5.886;2023-07-08T03:33:03;5.10;;;1.40;;
62709;SDS011;48770;51.624;5.886;2023-07-08T03:35:28;1.90;;;1.50;;
62709;SDS011;48770;51.624;5.886;2023-07-08T03:37:54;2.67;;;1.60;;
62709;SDS011;48770;51.624;5.886;2023-07-08T03:40:19;1.77;;;1.45;;
62709;SDS011;48770;51.624;5.886;2023-07-08T03:42:44;1.95;;;1.33;;
62709;SDS011;48770;51.624;5.886;2023-07-08T03:45:10;2.40;;;1.60;;
62709;SDS011;48770;51.624;5.886;2023-07-08T03:47:35;1.58;;;1.48;;
62709;SDS011;48770;51.624;5.886;2023-07-08T03:50:01;3.35;;;1.42;;
62709;SDS011;48770;51.624;5.886;2023-07-08T03:52:26;2.13;;;1.17;;
62709;SDS011;48770;51.624;5.886;2023-07-08T03:54:52;2.95;;;1.60;;
62709;SDS011;48770;51.624;5.886;2023-07-08T03:57:17;2.10;;;1.58;;
62709;SDS011;48770;51.624;5.886;2023-07-08T03:59:43;3.17;;;1.40;;
62709;SDS011;48770;51.624;5.886;2023-07-08T04:02:09;3.75;;;1.35;;
62709;SDS011;48770;51.624;5.886;2023-07-08T04:04:35;2.28;;;1.63;;
62709;SDS011;48770;51.624;5.886;2023-07-08T04:07:02;2.13;;;1.50;;
62709;SDS011;48770;51.624;5.886;2023-07-08T04:09:28;3.55;;;1.42;;
62709;SDS011;48770;51.624;5.886;2023-07-08T04:11:53;1.93;;;1.27;;
62709;SDS011;48770;51.624;5.886;2023-07-08T04:14:19;1.48;;;1.30;;
62709;SDS011;48770;51.624;5.886;2023-07-08T04:16:45;2.58;;;1.65;;
62709;SDS011;48770;51.624;5.886;2023-07-08T04:19:16;1.50;;;1.20;;
62709;SDS011;48770;51.624;5.886;2023-07-08T04:21:42;2.28;;;1.42;;
62709;SDS011;48770;51.624;5.886;2023-07-08T04:24:12;1.95;;;1.30;;
62709;SDS011;48770;51.624;5.886;2023-07-08T04:26:39;2.70;;;1.40;;
62709;SDS011;48770;51.624;5.886;2023-07-08T04:29:12;2.38;;;1.60;;
62709;SDS011;48770;51.624;5.886;2023-07-08T04:31:39;2.30;;;1.38;;
62709;SDS011;48770;51.624;5.886;2023-07-08T04:34:04;2.10;;;1.48;;
62709;SDS011;48770;51.624;5.886;2023-07-08T04:36:31;3.05;;;1.50;;
62709;SDS011;48770;51.624;5.886;2023-07-08T04:38:57;2.08;;;1.50;;
62709;SDS011;48770;51.624;5.886;2023-07-08T04:41:23;3.40;;;1.27;;
62709;SDS011;48770;51.624;5.886;2023-07-08T04:43:50;1.98;;;1.63;;
62709;SDS011;48770;51.624;5.886;2023-07-08T04:49:06;2.47;;;1.55;;
62709;SDS011;48770;51.624;5.886;2023-07-08T04:51:34;1.73;;;1.27;;
62709;SDS011;48770;51.624;5.886;2023-07-08T04:54:00;2.95;;;1.80;;
62709;SDS011;48770;51.624;5.886;2023-07-08T04:56:34;2.83;;;1.58;;
62709;SDS011;48770;51.624;5.886;2023-07-08T04:59:11;1.40;;;1.23;;
62709;SDS011;48770;51.624;5.886;2023-07-08T05:01:38;2.67;;;1.52;;
62709;SDS011;48770;51.624;5.886;2023-07-08T05:04:04;2.13;;;1.40;;
62709;SDS011;48770;51.624;5.886;2023-07-08T05:06:32;1.75;;;1.55;;
62709;SDS011;48770;51.624;5.886;2023-07-08T05:08:59;4.78;;;1.38;;
62709;SDS011;48770;51.624;5.886;2023-07-08T05:11:25;2.50;;;1.30;;
62709;SDS011;48770;51.624;5.886;2023-07-08T05:13:50;2.00;;;1.48;;
62709;SDS011;48770;51.624;5.886;2023-07-08T05:16:16;2.03;;;1.45;;
62709;SDS011;48770;51.624;5.886;2023-07-08T05:18:42;6.55;;;1.70;;
62709;SDS011;48770;51.624;5.886;2023-07-08T05:21:08;3.20;;;1.33;;
62709;SDS011;48770;51.624;5.886;2023-07-08T05:23:34;1.55;;;1.45;;
62709;SDS011;48770;51.624;5.886;2023-07-08T05:26:00;2.40;;;1.73;;
62709;SDS011;48770;51.624;5.886;2023-07-08T05:28:27;3.40;;;1.58;;
62709;SDS011;48770;51.624;5.886;2023-07-08T05:30:53;5.10;;;1.55;;
62709;SDS011;48770;51.624;5.886;2023-07-08T05:33:20;1.50;;;1.40;;
62709;SDS011;48770;51.624;5.886;2023-07-08T05:35:46;3.92;;;1.92;;
62709;SDS011;48770;51.624;5.886;2023-07-08T05:38:11;4.18;;;1.70;;
62709;SDS011;48770;51.624;5.886;2023-07-08T05:40:36;2.30;;;1.40;;
62709;SDS011;48770;51.624;5.886;2023-07-08T05:43:01;2.95;;;1.60;;
62709;SDS011;48770;51.624;5.886;2023-07-08T05:45:27;1.98;;;1.40;;
62709;SDS011;48770;51.624;5.886;2023-07-08T05:47:52;4.00;;;1.75;;
62709;SDS011;48770;51.624;5.886;2023-07-08T05:50:17;2.63;;;1.80;;
62709;SDS011;48770;51.624;5.886;2023-07-08T05:52:43;2.40;;;1.88;;
62709;SDS011;48770;51.624;5.886;2023-07-08T05:55:08;2.73;;;1.50;;
62709;SDS011;48770;51.624;5.886;2023-07-08T05:57:33;5.60;;;1.80;;
62709;SDS011;48770;51.624;5.886;2023-07-08T05:59:59;2.10;;;1.58;;
62709;SDS011;48770;51.624;5.886;2023-07-08T06:02:24;2.30;;;1.70;;
62709;SDS011;48770;51.624;5.886;2023-07-08T06:04:50;4.43;;;1.90;;
62709;SDS011;48770;51.624;5.886;2023-07-08T06:07:16;2.63;;;1.60;;
62709;SDS011;48770;51.624;5.886;2023-07-08T06:09:41;3.03;;;1.60;;
62709;SDS011;48770;51.624;5.886;2023-07-08T06:12:07;4.28;;;1.67;;
62709;SDS011;48770;51.624;5.886;2023-07-08T06:14:32;3.65;;;2.08;;
62709;SDS011;48770;51.624;5.886;2023-07-08T06:16:58;2.93;;;1.47;;
62709;SDS011;48770;51.624;5.886;2023-07-08T06:19:24;2.03;;;1.70;;
62709;SDS011;48770;51.624;5.886;2023-07-08T06:21:49;2.10;;;1.52;;
62709;SDS011;48770;51.624;5.886;2023-07-08T06:24:14;3.67;;;1.65;;
62709;SDS011;48770;51.624;5.886;2023-07-08T06:26:40;4.90;;;1.70;;
62709;SDS011;48770;51.624;5.886;2023-07-08T06:29:05;2.70;;;1.70;;
62709;SDS011;48770;51.624;5.886;2023-07-08T06:31:30;4.70;;;2.13;;
62709;SDS011;48770;51.624;5.886;2023-07-08T06:33:56;3.92;;;1.60;;
62709;SDS011;48770;51.624;5.886;2023-07-08T06:36:22;2.15;;;1.95;;
62709;SDS011;48770;51.624;5.886;2023-07-08T06:38:47;2.63;;;1.83;;
62709;SDS011;48770;51.624;5.886;2023-07-08T06:41:13;3.42;;;2.10;;
62709;SDS011;48770;51.624;5.886;2023-07-08T06:43:38;2.80;;;1.88;;
62709;SDS011;48770;51.624;5.886;2023-07-08T06:46:04;4.00;;;1.50;;
62709;SDS011;48770;51.624;5.886;2023-07-08T06:48:31;3.72;;;1.80;;
62709;SDS011;48770;51.624;5.886;2023-07-08T06:50:56;4.22;;;2.10;;
62709;SDS011;48770;51.624;5.886;2023-07-08T06:53:22;4.05;;;1.80;;
62709;SDS011;48770;51.624;5.886;2023-07-08T06:55:49;3.73;;;2.13;;
62709;SDS011;48770;51.624;5.886;2023-07-08T06:58:14;3.22;;;2.00;;
62709;SDS011;48770;51.624;5.886;2023-07-08T07:00:43;3.05;;;1.92;;
62709;SDS011;48770;51.624;5.886;2023-07-08T07:03:09;2.33;;;1.88;;
62709;SDS011;48770;51.624;5.886;2023-07-08T07:05:35;3.20;;;2.00;;
62709;SDS011;48770;51.624;5.886;2023-07-08T07:08:00;2.38;;;1.60;;
62709;SDS011;48770;51.624;5.886;2023-07-08T07:10:25;2.88;;;1.92;;
62709;SDS011;48770;51.624;5.886;2023-07-08T07:12:51;4.00;;;2.33;;
62709;SDS011;48770;51.624;5.886;2023-07-08T07:15:16;3.05;;;1.70;;
62709;SDS011;48770;51.624;5.886;2023-07-08T07:17:41;4.85;;;2.00;;
62709;SDS011;48770;51.624;5.886;2023-07-08T07:20:07;3.70;;;2.00;;
62709;SDS011;48770;51.624;5.886;2023-07-08T07:22:33;3.10;;;1.60;;
62709;SDS011;48770;51.624;5.886;2023-07-08T07:25:00;5.13;;;1.55;;
62709;SDS011;48770;51.624;5.886;2023-07-08T07:27:25;2.42;;;1.52;;
62709;SDS011;48770;51.624;5.886;2023-07-08T07:29:50;3.13;;;2.20;;
62709;SDS011;48770;51.624;5.886;2023-07-08T07:32:17;3.55;;;1.63;;
62709;SDS011;48770;51.624;5.886;2023-07-08T07:34:46;3.67;;;1.85;;
62709;SDS011;48770;51.624;5.886;2023-07-08T07:37:13;3.67;;;1.70;;
62709;SDS011;48770;51.624;5.886;2023-07-08T07:39:39;6.20;;;1.98;;
62709;SDS011;48770;51.624;5.886;2023-07-08T07:42:05;3.38;;;1.52;;
62709;SDS011;48770;51.624;5.886;2023-07-08T07:44:31;2.22;;;1.48;;
62709;SDS011;48770;51.624;5.886;2023-07-08T07:46:56;5.28;;;2.13;;
62709;SDS011;48770;51.624;5.886;2023-07-08T07:49:22;2.50;;;1.65;;
62709;SDS011;48770;51.624;5.886;2023-07-08T07:51:48;4.82;;;1.65;;
62709;SDS011;48770;51.624;5.886;2023-07-08T07:54:13;2.15;;;1.30;;
62709;SDS011;48770;51.624;5.886;2023-07-08T07:56:39;3.40;;;1.50;;
62709;SDS011;48770;51.624;5.886;2023-07-08T07:59:05;3.65;;;1.70;;
62709;SDS011;48770;51.624;5.886;2023-07-08T08:01:30;3.53;;;1.77;;
62709;SDS011;48770;51.624;5.886;2023-07-08T08:03:55;5.15;;;1.88;;
62709;SDS011;48770;51.624;5.886;2023-07-08T08:06:21;3.10;;;1.80;;
62709;SDS011;48770;51.624;5.886;2023-07-08T08:08:46;6.47;;;1.80;;
62709;SDS011;48770;51.624;5.886;2023-07-08T08:11:13;5.85;;;1.83;;
62709;SDS011;48770;51.624;5.886;2023-07-08T08:13:38;6.18;;;1.65;;
62709;SDS011;48770;51.624;5.886;2023-07-08T08:16:03;5.47;;;2.03;;
62709;SDS011;48770;51.624;5.886;2023-07-08T08:18:29;3.10;;;1.80;;
62709;SDS011;48770;51.624;5.886;2023-07-08T08:20:55;4.75;;;1.50;;
62709;SDS011;48770;51.624;5.886;2023-07-08T08:23:21;5.50;;;1.58;;
62709;SDS011;48770;51.624;5.886;2023-07-08T08:25:46;4.75;;;1.30;;
62709;SDS011;48770;51.624;5.886;2023-07-08T08:28:11;4.47;;;1.67;;
62709;SDS011;48770;51.624;5.886;2023-07-08T08:30:37;2.35;;;1.50;;
62709;SDS011;48770;51.624;5.886;2023-07-08T08:33:02;5.95;;;1.90;;
62709;SDS011;48770;51.624;5.886;2023-07-08T08:35:28;5.40;;;1.80;;
62709;SDS011;48770;51.624;5.886;2023-07-08T08:37:53;2.30;;;1.55;;
62709;SDS011;48770;51.624;5.886;2023-07-08T08:40:19;3.33;;;1.67;;
62709;SDS011;48770;51.624;5.886;2023-07-08T08:42:46;3.50;;;1.50;;
62709;SDS011;48770;51.624;5.886;2023-07-08T08:45:18;2.85;;;1.60;;
62709;SDS011;48770;51.624;5.886;2023-07-08T08:47:47;3.92;;;1.60;;
62709;SDS011;48770;51.624;5.886;2023-07-08T08:52:52;2.42;;;1.70;;
62709;SDS011;48770;51.624;5.886;2023-07-08T08:55:22;1.98;;;1.50;;
62709;SDS011;48770;51.624;5.886;2023-07-08T08:57:57;1.88;;;1.42;;
62709;SDS011;48770;51.624;5.886;2023-07-08T09:03:21;3.88;;;1.60;;
62709;SDS011;48770;51.624;5.886;2023-07-08T09:05:49;3.13;;;1.40;;
62709;SDS011;48770;51.624;5.886;2023-07-08T09:08:27;2.20;;;1.70;;
62709;SDS011;48770;51.624;5.886;2023-07-08T09:13:37;4.18;;;1.52;;
62709;SDS011;48770;51.624;5.886;2023-07-08T09:16:07;2.75;;;1.63;;
62709;SDS011;48770;51.624;5.886;2023-07-08T09:24:58;2.88;;;1.70;;
62709;SDS011;48770;51.624;5.886;2023-07-08T09:27:08;4.63;;;1.60;;
62709;SDS011;48770;51.624;5.886;2023-07-08T09:29:33;4.15;;;1.70;;
62709;SDS011;48770;51.624;5.886;2023-07-08T09:31:59;2.95;;;1.90;;
62709;SDS011;48770;51.624;5.886;2023-07-08T09:34:40;4.10;;;1.60;;
62709;SDS011;48770;51.624;5.886;2023-07-08T09:37:21;3.67;;;1.75;;
62709;SDS011;48770;51.624;5.886;2023-07-08T09:39:56;1.70;;;1.52;;
62709;SDS011;48770;51.624;5.886;2023-07-08T09:42:25;2.50;;;1.35;;
62709;SDS011;48770;51.624;5.886;2023-07-08T09:44:55;2.30;;;1.38;;
62709;SDS011;48770;51.624;5.886;2023-07-08T09:47:26;2.35;;;1.27;;
62709;SDS011;48770;51.624;5.886;2023-07-08T09:49:59;6.18;;;1.48;;
62709;SDS011;48770;51.624;5.886;2023-07-08T09:52:25;3.42;;;1.75;;
62709;SDS011;48770;51.624;5.886;2023-07-08T09:54:53;2.60;;;1.60;;
62709;SDS011;48770;51.624;5.886;2023-07-08T09:57:26;2.75;;;1.42;;
62709;SDS011;48770;51.624;5.886;2023-07-08T10:00:00;2.75;;;1.45;;
62709;SDS011;48770;51.624;5.886;2023-07-08T10:02:33;3.15;;;1.60;;
62709;SDS011;48770;51.624;5.886;2023-07-08T10:07:41;2.10;;;1.35;;
62709;SDS011;48770;51.624;5.886;2023-07-08T10:10:09;2.40;;;1.48;;
62709;SDS011;48770;51.624;5.886;2023-07-08T10:12:39;2.22;;;1.83;;
62709;SDS011;48770;51.624;5.886;2023-07-08T10:15:13;4.85;;;1.70;;
62709;SDS011;48770;51.624;5.886;2023-07-08T10:17:45;2.67;;;1.95;;
62709;SDS011;48770;51.624;5.886;2023-07-08T10:20:11;6.78;;;1.83;;
62709;SDS011;48770;51.624;5.886;2023-07-08T10:25:29;7.43;;;1.90;;
62709;SDS011;48770;51.624;5.886;2023-07-08T10:30:38;2.88;;;1.75;;
62709;SDS011;48770;51.624;5.886;2023-07-08T10:33:20;6.03;;;2.00;;
62709;SDS011;48770;51.624;5.886;2023-07-08T10:41:43;3.88;;;1.70;;
62709;SDS011;48770;51.624;5.886;2023-07-08T10:49:59;2.42;;;1.73;;
62709;SDS011;48770;51.624;5.886;2023-07-08T10:55:41;5.85;;;1.90;;
62709;SDS011;48770;51.624;5.886;2023-07-08T11:01:14;4.60;;;2.05;;
62709;SDS011;48770;51.624;5.886;2023-07-08T11:03:55;3.53;;;1.80;;
62709;SDS011;48770;51.624;5.886;2023-07-08T11:06:50;5.82;;;2.20;;
62709;SDS011;48770;51.624;5.886;2023-07-08T11:09:29;5.93;;;1.90;;
62709;SDS011;48770;51.624;5.886;2023-07-08T11:12:08;4.30;;;1.90;;
62709;SDS011;48770;51.624;5.886;2023-07-08T11:14:53;3.83;;;2.10;;
62709;SDS011;48770;51.624;5.886;2023-07-08T11:17:27;3.53;;;2.03;;
62709;SDS011;48770;51.624;5.886;2023-07-08T11:22:43;4.03;;;2.13;;
62709;SDS011;48770;51.624;5.886;2023-07-08T11:25:17;4.45;;;2.15;;
62709;SDS011;48770;51.624;5.886;2023-07-08T11:27:44;2.67;;;2.30;;
62709;SDS011;48770;51.624;5.886;2023-07-08T11:30:14;3.50;;;2.03;;
62709;SDS011;48770;51.624;5.886;2023-07-08T11:32:42;4.05;;;2.20;;
62709;SDS011;48770;51.624;5.886;2023-07-08T11:35:16;2.15;;;1.90;;
62709;SDS011;48770;51.624;5.886;2023-07-08T11:37:46;5.25;;;2.30;;
62709;SDS011;48770;51.624;5.886;2023-07-08T11:40:22;4.22;;;2.30;;
62709;SDS011;48770;51.624;5.886;2023-07-08T11:42:52;3.30;;;2.17;;
62709;SDS011;48770;51.624;5.886;2023-07-08T11:45:26;4.25;;;1.90;;
62709;SDS011;48770;51.624;5.886;2023-07-08T11:48:21;2.35;;;1.90;;
62709;SDS011;48770;51.624;5.886;2023-07-08T11:50:50;1.92;;;1.73;;
62709;SDS011;48770;51.624;5.886;2023-07-08T11:55:59;2.97;;;2.22;;
62709;SDS011;48770;51.624;5.886;2023-07-08T11:58:27;2.55;;;2.13;;
62709;SDS011;48770;51.624;5.886;2023-07-08T12:03:37;3.13;;;2.67;;
62709;SDS011;48770;51.624;5.886;2023-07-08T12:08:52;2.22;;;1.75;;
62709;SDS011;48770;51.624;5.886;2023-07-08T12:11:18;3.25;;;2.08;;
62709;SDS011;48770;51.624;5.886;2023-07-08T12:13:53;3.42;;;2.25;;
62709;SDS011;48770;51.624;5.886;2023-07-08T12:16:22;3.50;;;2.25;;
62709;SDS011;48770;51.624;5.886;2023-07-08T12:18:47;2.83;;;2.30;;
62709;SDS011;48770;51.624;5.886;2023-07-08T12:21:14;3.55;;;2.67;;
62709;SDS011;48770;51.624;5.886;2023-07-08T12:23:46;2.75;;;2.35;;
62709;SDS011;48770;51.624;5.886;2023-07-08T12:26:12;2.97;;;2.35;;
62709;SDS011;48770;51.624;5.886;2023-07-08T12:28:39;2.50;;;2.20;;
62709;SDS011;48770;51.624;5.886;2023-07-08T12:31:10;2.90;;;2.60;;
62709;SDS011;48770;51.624;5.886;2023-07-08T12:33:40;2.45;;;2.15;;
62709;SDS011;48770;51.624;5.886;2023-07-08T12:36:06;3.92;;;2.78;;
62709;SDS011;48770;51.624;5.886;2023-07-08T12:38:37;3.60;;;2.63;;
62709;SDS011;48770;51.624;5.886;2023-07-08T12:41:28;2.85;;;2.38;;
62709;SDS011;48770;51.624;5.886;2023-07-08T12:43:55;3.78;;;2.83;;
62709;SDS011;48770;51.624;5.886;2023-07-08T12:46:21;2.95;;;2.53;;
62709;SDS011;48770;51.624;5.886;2023-07-08T12:48:48;4.68;;;2.80;;
62709;SDS011;48770;51.624;5.886;2023-07-08T12:51:16;3.90;;;2.85;;
62709;SDS011;48770;51.624;5.886;2023-07-08T12:53:45;3.22;;;2.33;;
62709;SDS011;48770;51.624;5.886;2023-07-08T12:56:11;2.70;;;2.22;;
62709;SDS011;48770;51.624;5.886;2023-07-08T12:58:38;4.53;;;2.60;;
62709;SDS011;48770;51.624;5.886;2023-07-08T13:01:06;4.60;;;2.70;;
62709;SDS011;48770;51.624;5.886;2023-07-08T13:03:34;2.95;;;2.58;;
62709;SDS011;48770;51.624;5.886;2023-07-08T13:06:04;4.20;;;2.40;;
62709;SDS011;48770;51.624;5.886;2023-07-08T13:08:34;3.65;;;2.47;;
62709;SDS011;48770;51.624;5.886;2023-07-08T13:11:02;3.20;;;2.55;;
62709;SDS011;48770;51.624;5.886;2023-07-08T13:13:34;4.75;;;2.35;;
62709;SDS011;48770;51.624;5.886;2023-07-08T13:16:02;3.72;;;2.83;;
62709;SDS011;48770;51.624;5.886;2023-07-08T13:18:36;3.53;;;2.75;;
62709;SDS011;48770;51.624;5.886;2023-07-08T13:21:04;3.88;;;2.47;;
62709;SDS011;48770;51.624;5.886;2023-07-08T13:23:31;6.88;;;3.30;;
62709;SDS011;48770;51.624;5.886;2023-07-08T13:25:57;4.38;;;3.00;;
62709;SDS011;48770;51.624;5.886;2023-07-08T13:30:54;3.80;;;2.78;;
62709;SDS011;48770;51.624;5.886;2023-07-08T13:33:30;5.78;;;3.20;;
62709;SDS011;48770;51.624;5.886;2023-07-08T13:35:57;4.18;;;2.60;;
62709;SDS011;48770;51.624;5.886;2023-07-08T13:38:30;3.42;;;2.60;;
62709;SDS011;48770;51.624;5.886;2023-07-08T13:40:59;7.70;;;2.95;;
62709;SDS011;48770;51.624;5.886;2023-07-08T13:43:28;3.38;;;2.45;;
62709;SDS011;48770;51.624;5.886;2023-07-08T13:45:56;2.60;;;2.40;;
62709;SDS011;48770;51.624;5.886;2023-07-08T13:48:38;4.93;;;2.65;;
62709;SDS011;48770;51.624;5.886;2023-07-08T13:51:10;3.67;;;2.75;;
62709;SDS011;48770;51.624;5.886;2023-07-08T13:53:47;3.85;;;2.55;;
62709;SDS011;48770;51.624;5.886;2023-07-08T13:59:08;3.63;;;2.70;;
62709;SDS011;48770;51.624;5.886;2023-07-08T14:01:40;3.25;;;2.72;;
62709;SDS011;48770;51.624;5.886;2023-07-08T14:04:07;4.50;;;2.92;;
62709;SDS011;48770;51.624;5.886;2023-07-08T14:06:33;3.78;;;2.80;;
62709;SDS011;48770;51.624;5.886;2023-07-08T14:09:17;3.60;;;2.67;;
62709;SDS011;48770;51.624;5.886;2023-07-08T14:11:45;3.95;;;2.53;;
62709;SDS011;48770;51.624;5.886;2023-07-08T14:14:11;4.00;;;2.67;;
62709;SDS011;48770;51.624;5.886;2023-07-08T14:16:39;4.18;;;2.80;;
62709;SDS011;48770;51.624;5.886;2023-07-08T14:19:10;3.50;;;2.75;;
62709;SDS011;48770;51.624;5.886;2023-07-08T14:21:38;4.35;;;2.85;;
62709;SDS011;48770;51.624;5.886;2023-07-08T14:24:10;3.15;;;2.50;;
62709;SDS011;48770;51.624;5.886;2023-07-08T14:26:38;3.28;;;2.65;;
62709;SDS011;48770;51.624;5.886;2023-07-08T14:29:06;4.10;;;2.58;;
62709;SDS011;48770;51.624;5.886;2023-07-08T14:31:31;3.22;;;2.13;;
62709;SDS011;48770;51.624;5.886;2023-07-08T14:34:07;5.45;;;2.60;;
62709;SDS011;48770;51.624;5.886;2023-07-08T14:36:47;3.72;;;2.67;;
62709;SDS011;48770;51.624;5.886;2023-07-08T14:39:13;4.43;;;2.53;;
62709;SDS011;48770;51.624;5.886;2023-07-08T14:41:39;2.90;;;2.60;;
62709;SDS011;48770;51.624;5.886;2023-07-08T14:44:25;3.60;;;2.70;;
62709;SDS011;48770;51.624;5.886;2023-07-08T14:46:55;3.45;;;2.55;;
62709;SDS011;48770;51.624;5.886;2023-07-08T14:49:22;3.33;;;2.58;;
62709;SDS011;48770;51.624;5.886;2023-07-08T14:51:48;3.33;;;2.75;;
62709;SDS011;48770;51.624;5.886;2023-07-08T14:54:14;4.35;;;2.75;;
62709;SDS011;48770;51.624;5.886;2023-07-08T14:56:39;3.17;;;2.58;;
62709;SDS011;48770;51.624;5.886;2023-07-08T14:59:06;3.38;;;2.35;;
62709;SDS011;48770;51.624;5.886;2023-07-08T15:01:35;3.80;;;2.67;;
62709;SDS011;48770;51.624;5.886;2023-07-08T15:04:00;3.10;;;2.60;;
62709;SDS011;48770;51.624;5.886;2023-07-08T15:06:25;3.67;;;2.77;;
62709;SDS011;48770;51.624;5.886;2023-07-08T15:08:51;3.60;;;2.70;;
62709;SDS011;48770;51.624;5.886;2023-07-08T15:11:16;4.10;;;2.87;;
62709;SDS011;48770;51.624;5.886;2023-07-08T15:13:43;3.40;;;2.33;;
62709;SDS011;48770;51.624;5.886;2023-07-08T15:16:14;4.43;;;2.88;;
62709;SDS011;48770;51.624;5.886;2023-07-08T15:18:40;3.92;;;2.63;;
62709;SDS011;48770;51.624;5.886;2023-07-08T15:21:07;3.20;;;2.60;;
62709;SDS011;48770;51.624;5.886;2023-07-08T15:23:35;2.83;;;2.35;;
62709;SDS011;48770;51.624;5.886;2023-07-08T15:26:01;2.77;;;2.53;;
62709;SDS011;48770;51.624;5.886;2023-07-08T15:31:10;5.75;;;2.50;;
62709;SDS011;48770;51.624;5.886;2023-07-08T15:33:36;4.93;;;2.50;;
62709;SDS011;48770;51.624;5.886;2023-07-08T15:36:02;3.40;;;2.53;;
62709;SDS011;48770;51.624;5.886;2023-07-08T15:38:27;3.28;;;2.80;;
62709;SDS011;48770;51.624;5.886;2023-07-08T15:40:52;3.33;;;2.50;;
62709;SDS011;48770;51.624;5.886;2023-07-08T15:43:18;3.20;;;2.30;;
62709;SDS011;48770;51.624;5.886;2023-07-08T15:45:43;4.45;;;2.80;;
62709;SDS011;48770;51.624;5.886;2023-07-08T15:48:15;3.47;;;2.47;;
62709;SDS011;48770;51.624;5.886;2023-07-08T15:50:43;3.47;;;2.65;;
62709;SDS011;48770;51.624;5.886;2023-07-08T15:53:08;4.00;;;2.75;;
62709;SDS011;48770;51.624;5.886;2023-07-08T15:55:36;4.05;;;2.92;;
62709;SDS011;48770;51.624;5.886;2023-07-08T15:58:05;2.63;;;2.42;;